Report METAR

 

LIBV - Gioia Del Colle, Italy
Distance from station: SSE 15km
Dati ricevuti: 29/11/2022 18:55
Pioviggine, Parz. Nuvoloso
Pioviggine, Parz. Nuvoloso
 Vento da E
Vento: E 2 km/h
Temperatura: 10°C
P.to Rugiada: 9°C
Umidità: 94%
Pressione: 1010 hPa
Riassunto: Pioviggine
Nuvole: Parz. nuvoloso
Visibility: 6 km
Cloud details: Parz. nuvoloso 610 m
Parz. nuvoloso 1067 m
2022/11/29 17:55 LIBV 291755Z 09001KT 6000 -RA SCT020 SCT035 10/09 Q1010 RERA
LIBD - Bari/Palese Macc, Italy
Distance from station: NNO 26km
Dati ricevuti: 29/11/2022 19:50
Parz. nuvoloso
Parz. nuvoloso
 Vento da SSO
Vento: SSO 11 km/h
Temperatura: 11°C
P.to Rugiada: 9°C
Umidità: 88%
Pressione: 1012 hPa
Nuvole: Parz. nuvoloso
Visibility: 10 km
Cloud details: Parz. nuvoloso 1219 m
2022/11/29 18:50 LIBD 291850Z 21006KT 9999 SCT040 11/09 Q1012
LIBH - Marina Di Ginosa, Italy
Distance from station: S 53km
Dati ricevuti: 29/11/2022 18:55
Parz. nuvoloso
Parz. nuvoloso
 Vento da NNE
Vento: NNE 11 km/h
Temperatura: 14°C
P.to Rugiada: 10°C
Umidità: 77%
Pressione: 1011 hPa
Nuvole: Parz. nuvoloso
Visibility: 10 km
Cloud details: Parz. nuvoloso 914 m
2022/11/29 17:55 LIBH 291755Z 03006KT 9999 SCT030 14/10 Q1011 RMK OVC OVC070 QUK / QUL / VIS MAR 20 KM VIS MIN 9999
 
LIBG - Grottaglie(Civ/A, Italy
Distance from station: SE 61km
Dati ricevuti: 29/11/2022 17:50
DATI Obsoleti
Parz. nuvoloso
Parz. nuvoloso
 Vento da NNE
Vento: NNE 7 km/h
Temperatura: 12°C
P.to Rugiada: 8°C
Umidità: 77%
Pressione: 1011 hPa
Nuvole: Parz. nuvoloso
Visibility: 10 km
Cloud details: Parz. nuvoloso 1219 m
2022/11/29 16:50 LIBG 291650Z 03004KT 9999 SCT040 12/08 Q1011
LIBR - Brindisi/Casale, Italy
Distance from station: ESE 96km
Dati ricevuti: 29/11/2022 19:50
Poco Nuvoloso
Poco Nuvoloso
 Vento da E
Vento: E 17 km/h
Temperatura: 14°C
P.to Rugiada: 8°C
Umidità: 67%
Pressione: 1011 hPa
Nuvole: Poco Nuvoloso
Visibility: 10 km
Cloud details: Poco Nuvoloso 1372 m
2022/11/29 18:50 LIBR 291850Z 08009KT 070V130 9999 FEW045 14/08 Q1011
LIBA - Amendola (it-Afb, Italy
Distance from station: NO 118km
Dati ricevuti: 29/11/2022 18:55
Parz. nuvoloso
Parz. nuvoloso
 Vento da NNE
Vento: NNE 9 km/h
Temperatura: 10°C
Temperatura Vento: 9°C
P.to Rugiada: 7°C
Umidità: 82%
Pressione: 1012 hPa
Nuvole: Parz. nuvoloso
Visibility: 10 km
Cloud details: Poco Nuvoloso 1219 m
Parz. nuvoloso 1829 m
2022/11/29 17:55 LIBA 291755Z 02005KT 9999 FEW040 SCT060 10/07 Q1012
 
LIBF - Foggia/Gino Lisa, Italy
Distance from station: ONO 126km
Dati ricevuti: 29/11/2022 18:50
Prev. Nuvoloso
Prev. Nuvoloso
 Vento da N
Vento: N 7 km/h
Temperatura: 10°C
Temperatura Vento: 9°C
P.to Rugiada: 7°C
Umidità: 82%
Pressione: 1012 hPa
Nuvole: Prev. Nuvoloso
Visibility: 10 km
Cloud details: Prev. Nuvoloso 914 m
2022/11/29 17:50 LIBF 291750Z 01004KT 9999 BKN030 10/07 Q1012
LIBN - Lecce (it-Afb), Italy
Distance from station: SE 132km
Dati ricevuti: 29/11/2022 18:55
Parz. nuvoloso
Parz. nuvoloso
 Vento da NE
Vento: NE 11 km/h
Temperatura: 10°C
Temperatura Vento: 8°C
P.to Rugiada: 7°C
Umidità: 82%
Pressione: 1011 hPa
Nuvole: Parz. nuvoloso
Visibility: 10 km
Cloud details: Poco Nuvoloso 762 m
Parz. nuvoloso 1067 m
2022/11/29 17:55 LIBN 291755Z 04006KT 9999 FEW025 SCT035 10/07 Q1011